Etusivu
METAR-TAF:

METAR-TAF

Lentoasemat :

Hondo, Texas, Yhdysvallat

Leveyspiiri: 29-21-34N, Pituuspiiri: 099-10-27W, korkeus merenpinnasta: 283 m

Tämänhetkinen sää

Tämä raportti tehtiin 45 minuuttia sitten, kello 09.51 UTC
Tuuli 4 kn idästä
Lämpötila 2°C
Kosteus 69%
Ilmanpaine 1028 hPa
Näkyvyys: 16.1 km
selkeää

METAR: KHDO 130951Z AUTO 09004KT 10SM CLR 02/M03 A3035 RMK AO2 SLP275 T00221033

Aika: 04:36 (10:36 UTC)


TAF: puuttuu

Säähavainnot ja -ennusteet yli 4000 lentoasemalta (METAR- ja TAF-raportit).

Käytössä olevat sääasemat on merkitty karttaan keltaisilla ja punaisilla pisteillä.

Aseta hiiri pisteen päälle nähdäksesi sääaseman nimen.

Klikkaa sitten nähdäksesi säähavainnot ja -ennusteet.

Kartan vaihtaminen: klikkaa mustalla rastilla varustettuja vihreitä pisteitä, niin voit zoomata sisään; viivalla varustettua vihreää pistettä, niin voit zoomata ulos tai vihreitä nuolia, niin pääset viereisille kartoille.


METAR-TAF: